createdAt,value
2022-10-22T00:01:09.800Z,94424.22
2022-10-22T00:03:37.873Z,94427.50
2022-10-22T00:06:06.531Z,94414.66
2022-10-22T00:08:34.679Z,94415.06
2022-10-22T00:11:12.520Z,94414.28
2022-10-22T00:13:41.348Z,94407.28
2022-10-22T00:16:09.621Z,94418.97
2022-10-22T00:18:37.880Z,94414.28
2022-10-22T00:21:06.694Z,94422.41
2022-10-22T00:23:34.901Z,94412.75
2022-10-22T00:26:02.769Z,94410.91
2022-10-22T00:28:30.710Z,94429.22
2022-10-22T00:31:00.297Z,94414.31
2022-10-22T00:33:29.809Z,94414.16
2022-10-22T00:35:58.318Z,94419.84
2022-10-22T00:38:26.281Z,94423.47
2022-10-22T00:40:54.479Z,94417.53
2022-10-22T00:43:22.714Z,94417.50
2022-10-22T00:45:50.704Z,94414.44
2022-10-22T00:48:30.225Z,94411.97
2022-10-22T00:51:08.542Z,94405.06
2022-10-22T00:53:51.503Z,94402.00
2022-10-22T00:56:21.033Z,94395.31
2022-10-22T00:58:56.024Z,94398.56
2022-10-22T01:01:30.217Z,94404.44
2022-10-22T01:03:58.876Z,94401.00
2022-10-22T01:06:30.918Z,94404.84
2022-10-22T01:09:01.785Z,94412.19
2022-10-22T01:12:02.556Z,94416.44
2022-10-22T01:15:05.993Z,94398.13
2022-10-22T01:17:49.003Z,94395.91
2022-10-22T01:20:39.559Z,94395.47
2022-10-22T01:23:34.964Z,94383.47
2022-10-22T01:26:33.876Z,94381.38
2022-10-22T01:29:11.486Z,94368.00
2022-10-22T01:31:45.367Z,94381.03
2022-10-22T01:34:17.610Z,94381.22
2022-10-22T01:36:48.316Z,94367.25
2022-10-22T01:39:17.797Z,94366.25
2022-10-22T01:41:46.398Z,94378.06
2022-10-22T01:44:32.327Z,94369.47
2022-10-22T01:47:24.959Z,94363.38
2022-10-22T01:50:15.916Z,94359.16
2022-10-22T01:53:06.134Z,94358.09
2022-10-22T01:56:02.745Z,94354.25
2022-10-22T01:59:02.052Z,94354.19
2022-10-22T02:03:06.119Z,94354.13
2022-10-22T02:05:46.146Z,94355.13
2022-10-22T02:08:20.372Z,94355.19
2022-10-22T02:10:49.820Z,94356.78
2022-10-22T02:13:37.849Z,94362.03
2022-10-22T02:16:09.956Z,94363.03
2022-10-22T02:18:42.905Z,94353.22
2022-10-22T02:21:11.250Z,94358.69
2022-10-22T02:23:39.682Z,94362.94
2022-10-22T02:26:16.646Z,94364.00
2022-10-22T02:29:00.111Z,94360.78
2022-10-22T02:31:34.513Z,94360.78
2022-10-22T02:34:10.282Z,94354.31
2022-10-22T02:36:40.695Z,94352.53
2022-10-22T02:39:11.483Z,94345.09
2022-10-22T02:41:39.875Z,94340.66
2022-10-22T02:44:10.221Z,94348.78
2022-10-22T02:46:40.375Z,94339.00
2022-10-22T02:49:08.365Z,94342.19
2022-10-22T02:51:36.596Z,94354.03
2022-10-22T02:54:04.879Z,94361.88
2022-10-22T02:56:33.231Z,94353.59
2022-10-22T02:59:01.139Z,94368.50
2022-10-22T03:01:29.125Z,94368.31
2022-10-22T03:03:57.058Z,94365.59
2022-10-22T03:08:54.291Z,94359.22
2022-10-22T03:11:22.253Z,94375.25
2022-10-22T03:13:50.184Z,94374.75
2022-10-22T03:16:18.080Z,94369.22
2022-10-22T03:18:46.054Z,94367.78
2022-10-22T03:21:24.115Z,94371.53
2022-10-22T03:23:52.651Z,94372.88
2022-10-22T03:26:21.324Z,94370.91
2022-10-22T03:28:49.481Z,94360.91
2022-10-22T03:31:17.513Z,94376.75
2022-10-22T03:33:45.344Z,94372.38
2022-10-22T03:36:13.458Z,94365.56
2022-10-22T03:38:42.115Z,94370.16
2022-10-22T03:41:10.514Z,94362.75
2022-10-22T03:43:39.484Z,94365.50
2022-10-22T03:46:07.911Z,94351.50
2022-10-22T03:48:35.922Z,94355.19
2022-10-22T03:51:04.040Z,94354.25
2022-10-22T03:53:32.149Z,94358.47
2022-10-22T03:56:00.036Z,94354.63
2022-10-22T03:58:28.034Z,94345.59
2022-10-22T04:00:55.959Z,94347.19
2022-10-22T04:03:23.981Z,94351.34
2022-10-22T04:05:51.913Z,94344.25
2022-10-22T04:08:19.816Z,94345.16
2022-10-22T04:10:53.753Z,94349.75
2022-10-22T04:13:21.801Z,94362.84
2022-10-22T04:15:49.889Z,94347.50
2022-10-22T04:18:22.182Z,94338.72
2022-10-22T04:20:52.494Z,94347.16
2022-10-22T04:23:20.453Z,94345.78
2022-10-22T04:25:48.343Z,94344.81
2022-10-22T04:28:16.358Z,94316.69
2022-10-22T04:30:44.248Z,94336.31
2022-10-22T04:33:12.186Z,94321.75
2022-10-22T04:35:40.409Z,94318.34
2022-10-22T04:38:08.495Z,94329.44
2022-10-22T04:40:36.514Z,94331.63
2022-10-22T04:43:04.466Z,94326.72
2022-10-22T04:45:36.518Z,94324.78
2022-10-22T04:48:04.704Z,94327.06
2022-10-22T04:50:32.572Z,94333.25
2022-10-22T04:53:00.633Z,94322.97
2022-10-22T04:58:02.065Z,94338.75
2022-10-22T05:00:30.018Z,94332.72
2022-10-22T05:02:58.049Z,94332.34
2022-10-22T05:05:26.096Z,94312.25
2022-10-22T05:07:54.077Z,94319.78
2022-10-22T05:10:22.062Z,94308.63
2022-10-22T05:12:50.319Z,94314.94
2022-10-22T05:15:18.279Z,94304.78
2022-10-22T05:17:47.198Z,94319.22
2022-10-22T05:20:15.193Z,94326.47
2022-10-22T05:22:43.240Z,94325.88
2022-10-22T05:25:12.409Z,94314.38
2022-10-22T05:27:40.538Z,94329.34
2022-10-22T05:30:08.894Z,94342.84
2022-10-22T05:32:36.970Z,94353.03
2022-10-22T05:35:05.278Z,94355.47
2022-10-22T05:37:33.279Z,94354.06
2022-10-22T05:40:12.529Z,94349.22
2022-10-22T05:42:48.278Z,94340.72
2022-10-22T05:45:16.413Z,94337.13
2022-10-22T05:47:44.450Z,94339.53
2022-10-22T05:50:12.286Z,94336.53
2022-10-22T05:52:40.568Z,94346.88
2022-10-22T05:55:08.904Z,94363.03
2022-10-22T05:57:37.113Z,94361.38
2022-10-22T06:00:06.188Z,94355.53
2022-10-22T06:02:34.481Z,94360.19
2022-10-22T06:05:02.784Z,94357.84
2022-10-22T06:07:31.041Z,94345.06
2022-10-22T06:09:59.786Z,94349.81
2022-10-22T06:12:28.026Z,94334.13
2022-10-22T06:14:56.070Z,94354.72
2022-10-22T06:17:24.087Z,94345.97
2022-10-22T06:19:52.066Z,94353.84
2022-10-22T06:22:20.229Z,94347.78
2022-10-22T06:24:48.234Z,94350.53
2022-10-22T06:27:16.282Z,94346.47
2022-10-22T06:29:44.238Z,94350.16
2022-10-22T06:32:12.254Z,94352.00
2022-10-22T06:34:40.857Z,94354.03
2022-10-22T06:37:10.901Z,94358.28
2022-10-22T06:39:39.623Z,94350.91
2022-10-22T06:42:07.758Z,94362.56
2022-10-22T06:44:35.793Z,94359.31
2022-10-22T06:47:04.359Z,94359.03
2022-10-22T06:49:32.556Z,94348.03
2022-10-22T06:52:00.713Z,94352.25
2022-10-22T06:54:28.717Z,94362.13
2022-10-22T06:56:56.727Z,94353.97
2022-10-22T06:59:24.712Z,94353.97
2022-10-22T07:01:52.986Z,94349.44
2022-10-22T07:04:20.897Z,94344.44
2022-10-22T07:06:48.918Z,94345.09
2022-10-22T07:11:50.318Z,94341.50
2022-10-22T07:14:18.361Z,94335.88
2022-10-22T07:16:47.154Z,94330.25
2022-10-22T07:19:15.313Z,94327.78
2022-10-22T07:21:43.314Z,94332.28
2022-10-22T07:24:11.531Z,94314.06
2022-10-22T07:26:39.769Z,94331.94
2022-10-22T07:29:08.223Z,94322.69
2022-10-22T07:31:36.612Z,94305.09
2022-10-22T07:34:05.035Z,94303.69
2022-10-22T07:36:34.031Z,94300.63
2022-10-22T07:39:03.076Z,94296.28
2022-10-22T07:41:31.863Z,94302.56
2022-10-22T07:44:00.140Z,94305.19
2022-10-22T07:46:28.563Z,94293.69
2022-10-22T07:48:56.823Z,94302.47
2022-10-22T07:51:24.845Z,94288.91
2022-10-22T07:53:52.906Z,94291.69
2022-10-22T07:56:21.112Z,94274.50
2022-10-22T07:58:49.207Z,94287.97
2022-10-22T08:01:17.546Z,94280.25
2022-10-22T08:03:46.033Z,94273.75
2022-10-22T08:06:15.026Z,94252.28
2022-10-22T08:08:45.952Z,94257.50
2022-10-22T08:11:14.354Z,94257.63
2022-10-22T08:13:45.323Z,94256.75
2022-10-22T08:16:14.524Z,94257.19
2022-10-22T08:18:42.750Z,94262.75
2022-10-22T08:21:12.608Z,94257.34
2022-10-22T08:23:40.667Z,94263.22
2022-10-22T08:26:09.494Z,94262.00
2022-10-22T08:28:38.029Z,94252.59
2022-10-22T08:31:07.938Z,94235.94
2022-10-22T08:33:36.873Z,94245.38
2022-10-22T08:36:06.192Z,94233.13
2022-10-22T08:38:35.681Z,94239.16
2022-10-22T08:41:16.402Z,94239.16
2022-10-22T08:43:58.271Z,94241.25
2022-10-22T08:46:47.343Z,94231.09
2022-10-22T08:49:21.509Z,94223.88
2022-10-22T08:51:50.822Z,94211.84
2022-10-22T08:54:54.019Z,94230.34
2022-10-22T08:57:28.304Z,94234.97
2022-10-22T09:00:15.290Z,94222.63
2022-10-22T09:02:44.064Z,94225.13
2022-10-22T09:05:20.865Z,94211.66
2022-10-22T09:07:50.739Z,94213.44
2022-10-22T09:10:22.233Z,94212.00
2022-10-22T09:12:50.763Z,94198.69
2022-10-22T09:15:20.379Z,94211.56
2022-10-22T09:18:14.950Z,94214.44
2022-10-22T09:20:50.225Z,94210.22
2022-10-22T09:23:28.489Z,94204.00
2022-10-22T09:25:57.990Z,94196.38
2022-10-22T09:28:26.936Z,94185.41
2022-10-22T09:30:55.175Z,94193.09
2022-10-22T09:33:28.705Z,94177.44
2022-10-22T09:36:07.176Z,94180.69
2022-10-22T09:38:41.801Z,94177.88
2022-10-22T09:41:09.965Z,94170.88
2022-10-22T09:43:38.279Z,94164.03
2022-10-22T09:46:14.882Z,94173.31
2022-10-22T09:48:54.314Z,94167.72
2022-10-22T09:51:37.008Z,94166.63
2022-10-22T09:54:20.144Z,94157.75
2022-10-22T09:56:53.963Z,94150.22
2022-10-22T09:59:31.386Z,94143.25
2022-10-22T10:02:13.612Z,94133.16
2022-10-22T10:04:52.724Z,94128.41
2022-10-22T10:07:23.905Z,94123.59
2022-10-22T10:09:53.821Z,94117.00
2022-10-22T10:15:34.276Z,94116.47
2022-10-22T10:18:15.004Z,94109.34
2022-10-22T10:20:59.811Z,94113.59
2022-10-22T10:23:55.869Z,94114.88
2022-10-22T10:26:41.771Z,94104.59
2022-10-22T10:32:50.452Z,94097.66
2022-10-22T10:35:37.711Z,94111.31
2022-10-22T10:38:06.140Z,94109.63
2022-10-22T10:40:48.295Z,94123.13
2022-10-22T10:43:37.184Z,94108.50
2022-10-22T10:46:11.880Z,94106.06
2022-10-22T10:48:55.929Z,94101.22
2022-10-22T10:51:42.360Z,94087.19
2022-10-22T10:54:35.935Z,94094.16
2022-10-22T10:57:19.734Z,94086.16
2022-10-22T11:00:07.482Z,94078.47
2022-10-22T11:05:37.956Z,94068.47
2022-10-22T11:08:11.874Z,94068.84
2022-10-22T11:11:01.187Z,94068.75
2022-10-22T11:13:36.953Z,94066.56
2022-10-22T11:16:21.059Z,94060.94
2022-10-22T11:18:59.118Z,94055.50
2022-10-22T11:22:05.359Z,94061.34
2022-10-22T11:24:41.573Z,94047.06
2022-10-22T11:27:30.313Z,94035.19
2022-10-22T11:30:06.778Z,94042.44
2022-10-22T11:32:35.280Z,94029.97
2022-10-22T11:35:05.075Z,94025.16
2022-10-22T11:37:35.734Z,94024.31
2022-10-22T11:40:29.844Z,94010.22
2022-10-22T11:43:03.724Z,94010.63
2022-10-22T11:45:36.618Z,94002.72
2022-10-22T11:48:17.151Z,94006.91
2022-10-22T11:50:57.666Z,94010.25
2022-10-22T11:53:26.017Z,94005.78
2022-10-22T11:55:59.945Z,93987.38
2022-10-22T11:58:33.861Z,93997.91
2022-10-22T12:01:01.826Z,94010.25
2022-10-22T12:03:32.462Z,94005.28
2022-10-22T12:06:21.080Z,93995.84
2022-10-22T12:08:49.087Z,93998.09
2022-10-22T12:11:20.586Z,93998.25
2022-10-22T12:14:12.676Z,93985.28
2022-10-22T12:17:01.233Z,93979.53
2022-10-22T12:19:35.145Z,93982.75
2022-10-22T12:22:25.929Z,93984.50
2022-10-22T12:24:57.444Z,93976.81
2022-10-22T12:27:30.189Z,93971.38
2022-10-22T12:30:00.698Z,93971.69
2022-10-22T12:32:37.657Z,93959.72
2022-10-22T12:35:23.991Z,93953.44
2022-10-22T12:37:54.662Z,93958.88
2022-10-22T12:40:26.426Z,93951.47
2022-10-22T12:42:57.755Z,93956.59
2022-10-22T12:45:31.065Z,93961.06
2022-10-22T12:48:05.476Z,93949.50
2022-10-22T12:50:42.830Z,93955.41
2022-10-22T12:53:31.949Z,93960.69
2022-10-22T12:56:04.410Z,93957.56
2022-10-22T12:58:55.747Z,93957.91
2022-10-22T13:01:27.205Z,93966.63
2022-10-22T13:04:13.543Z,93966.06
2022-10-22T13:06:45.827Z,93967.56
2022-10-22T13:09:19.671Z,93947.78
2022-10-22T13:12:04.977Z,93961.41
2022-10-22T13:14:35.945Z,93949.06
2022-10-22T13:17:39.280Z,93949.78
2022-10-22T13:20:21.006Z,93953.38
2022-10-22T13:23:06.007Z,93949.09
2022-10-22T13:25:37.455Z,93952.66
2022-10-22T13:28:20.301Z,93957.63
2022-10-22T13:31:24.907Z,93962.38
2022-10-22T13:34:00.654Z,93966.47
2022-10-22T13:36:30.562Z,93964.78
2022-10-22T13:38:59.143Z,93960.41
2022-10-22T13:41:32.461Z,93966.78
2022-10-22T13:44:00.480Z,93967.03
2022-10-22T13:46:29.787Z,93968.19
2022-10-22T13:49:00.095Z,93972.44
2022-10-22T13:51:36.496Z,93972.00
2022-10-22T13:54:10.847Z,93975.31
2022-10-22T13:56:39.094Z,93965.34
2022-10-22T13:59:07.081Z,93965.75
2022-10-22T14:01:36.541Z,93967.75
2022-10-22T14:04:07.675Z,93969.72
2022-10-22T14:09:15.487Z,93967.59
2022-10-22T14:11:44.274Z,93970.91
2022-10-22T14:14:14.599Z,93967.34
2022-10-22T14:16:43.494Z,93978.44
2022-10-22T14:19:17.013Z,93974.44
2022-10-22T14:21:45.933Z,93967.28
2022-10-22T14:24:14.543Z,93979.34
2022-10-22T14:26:43.308Z,93978.81
2022-10-22T14:29:11.971Z,93975.91
2022-10-22T14:31:44.392Z,93968.47
2022-10-22T14:34:15.936Z,93971.88
2022-10-22T14:36:44.941Z,93953.44
2022-10-22T14:39:14.058Z,93968.13
2022-10-22T14:41:43.366Z,93969.31
2022-10-22T14:44:15.062Z,93958.56
2022-10-22T14:46:44.679Z,93964.75
2022-10-22T14:49:13.469Z,93968.66
2022-10-22T14:51:42.458Z,93965.78
2022-10-22T14:54:11.152Z,93974.66
2022-10-22T14:56:39.699Z,93972.75
2022-10-22T14:59:08.287Z,93957.28
2022-10-22T15:01:36.709Z,93973.91
2022-10-22T15:04:05.564Z,93974.25
2022-10-22T15:06:34.366Z,93974.06
2022-10-22T15:09:02.575Z,93974.59
2022-10-22T15:11:30.833Z,93974.94
2022-10-22T15:13:59.706Z,93971.72
2022-10-22T15:16:28.128Z,93982.75
2022-10-22T15:18:57.554Z,93979.81
2022-10-22T15:21:26.371Z,93973.50
2022-10-22T15:23:54.824Z,93988.06
2022-10-22T15:26:23.299Z,93982.06
2022-10-22T15:28:51.776Z,93992.03
2022-10-22T15:31:45.385Z,93977.00
2022-10-22T15:34:18.497Z,93988.09
2022-10-22T15:36:47.142Z,93990.50
2022-10-22T15:39:16.615Z,93982.22
2022-10-22T15:41:45.184Z,93986.28
2022-10-22T15:44:25.219Z,93986.31
2022-10-22T15:46:56.839Z,93999.81
2022-10-22T15:49:27.607Z,93995.84
2022-10-22T15:51:56.784Z,94000.69
2022-10-22T15:54:28.997Z,93991.56
2022-10-22T15:56:59.613Z,94011.19
2022-10-22T15:59:28.405Z,94007.47
2022-10-22T16:01:56.383Z,94011.53
2022-10-22T16:04:24.865Z,94018.22
2022-10-22T16:06:53.862Z,94014.16
2022-10-22T16:09:24.661Z,94008.53
2022-10-22T16:11:55.045Z,94023.28
2022-10-22T16:14:24.406Z,94024.59
2022-10-22T16:16:55.826Z,94031.59
2022-10-22T16:19:25.447Z,94032.09
2022-10-22T16:21:56.022Z,94040.91
2022-10-22T16:24:24.806Z,94051.38
2022-10-22T16:26:53.552Z,94054.28
2022-10-22T16:29:22.128Z,94048.13
2022-10-22T16:31:51.033Z,94059.66
2022-10-22T16:34:19.552Z,94059.38
2022-10-22T16:36:49.288Z,94066.56
2022-10-22T16:39:17.969Z,94067.81
2022-10-22T16:41:47.173Z,94060.78
2022-10-22T16:44:15.788Z,94069.00
2022-10-22T16:46:44.250Z,94074.44
2022-10-22T16:49:12.835Z,94069.13
2022-10-22T16:51:41.395Z,94061.66
2022-10-22T16:54:12.628Z,94066.31
2022-10-22T16:59:23.924Z,94062.53
2022-10-22T17:01:52.882Z,94060.06
2022-10-22T17:04:22.907Z,94061.31
2022-10-22T17:06:51.629Z,94057.56
2022-10-22T17:09:19.800Z,94058.72
2022-10-22T17:11:53.123Z,94056.28
2022-10-22T17:14:21.597Z,94049.97
2022-10-22T17:16:53.812Z,94046.78
2022-10-22T17:19:23.168Z,94032.38
2022-10-22T17:21:51.663Z,94041.91
2022-10-22T17:24:20.310Z,94042.19
2022-10-22T17:26:48.961Z,94043.97
2022-10-22T17:29:18.353Z,94049.78
2022-10-22T17:31:46.787Z,94042.28
2022-10-22T17:34:17.800Z,94050.00
2022-10-22T17:36:46.146Z,94054.28
2022-10-22T17:39:18.187Z,94037.38
2022-10-22T17:41:47.133Z,94044.00
2022-10-22T17:44:16.440Z,94048.56
2022-10-22T17:46:45.672Z,94048.19
2022-10-22T17:49:21.478Z,94042.81
2022-10-22T17:51:50.286Z,94048.84
2022-10-22T17:54:18.683Z,94045.94
2022-10-22T17:56:46.925Z,94051.63
2022-10-22T17:59:17.453Z,94042.00
2022-10-22T18:01:47.360Z,94042.59
2022-10-22T18:04:18.582Z,94047.66
2022-10-22T18:06:48.425Z,94045.69
2022-10-22T18:09:19.397Z,94063.34
2022-10-22T18:11:50.485Z,94028.34
2022-10-22T18:14:21.313Z,94051.66
2022-10-22T18:16:51.373Z,94052.53
2022-10-22T18:19:23.537Z,94067.03
2022-10-22T18:21:52.601Z,94068.84
2022-10-22T18:24:20.914Z,94071.16
2022-10-22T18:26:49.633Z,94059.38
2022-10-22T18:29:21.144Z,94059.06
2022-10-22T18:31:50.332Z,94067.78
2022-10-22T18:34:21.768Z,94076.94
2022-10-22T18:36:52.681Z,94070.69
2022-10-22T18:39:21.188Z,94069.69
2022-10-22T18:41:49.780Z,94072.88
2022-10-22T18:44:18.743Z,94067.34
2022-10-22T18:46:46.951Z,94074.50
2022-10-22T18:49:19.210Z,94070.00
2022-10-22T18:51:53.034Z,94074.31
2022-10-22T18:54:23.849Z,94078.53
2022-10-22T18:56:56.302Z,94054.50
2022-10-22T18:59:27.906Z,94080.81
2022-10-22T19:01:59.970Z,94090.56
2022-10-22T19:04:34.072Z,94086.19
2022-10-22T19:07:04.138Z,94083.13
2022-10-22T19:09:32.815Z,94087.59
2022-10-22T19:12:01.546Z,94092.19
2022-10-22T19:14:30.450Z,94075.59
2022-10-22T19:16:59.237Z,94092.19
2022-10-22T19:19:28.076Z,94079.72
2022-10-22T19:21:57.011Z,94099.06
2022-10-22T19:24:26.666Z,94096.78
2022-10-22T19:26:55.190Z,94101.72
2022-10-22T19:29:23.956Z,94108.22
2022-10-22T19:31:52.632Z,94102.03
2022-10-22T19:34:21.312Z,94096.34
2022-10-22T19:36:52.108Z,94114.66
2022-10-22T19:39:20.911Z,94107.69
2022-10-22T19:41:49.928Z,94107.59
2022-10-22T19:44:18.586Z,94103.56
2022-10-22T19:46:47.289Z,94100.38
2022-10-22T19:49:19.011Z,94111.38
2022-10-22T19:51:50.614Z,94113.69
2022-10-22T19:54:20.866Z,94105.88
2022-10-22T19:56:50.414Z,94106.28
2022-10-22T19:59:21.096Z,94116.94
2022-10-22T20:01:49.770Z,94113.69
2022-10-22T20:04:19.173Z,94109.19
2022-10-22T20:06:47.845Z,94113.13
2022-10-22T20:09:16.569Z,94104.00
2022-10-22T20:11:45.000Z,94069.50
2022-10-22T20:14:14.708Z,94113.88
2022-10-22T20:16:44.206Z,94101.72
2022-10-22T20:19:16.496Z,94111.22
2022-10-22T20:21:48.804Z,94105.63
2022-10-22T20:24:17.649Z,94093.94
2022-10-22T20:26:47.547Z,94087.91
2022-10-22T20:29:16.890Z,94096.13
2022-10-22T20:31:46.541Z,94096.69
2022-10-22T20:34:15.353Z,94103.09
2022-10-22T20:36:43.464Z,94096.59
2022-10-22T20:39:14.721Z,94098.91
2022-10-22T20:41:43.530Z,94097.31
2022-10-22T20:44:15.723Z,94094.66
2022-10-22T20:46:44.755Z,94092.34
2022-10-22T20:49:18.419Z,94089.91
2022-10-22T20:51:47.176Z,94093.81
2022-10-22T20:54:15.751Z,94093.47
2022-10-22T20:56:44.239Z,94074.72
2022-10-22T20:59:13.084Z,94085.84
2022-10-22T21:01:45.477Z,94091.41
2022-10-22T21:04:14.732Z,94073.56
2022-10-22T21:06:43.525Z,94089.53
2022-10-22T21:09:13.368Z,94094.75
2022-10-22T21:11:43.712Z,94082.97
2022-10-22T21:14:14.523Z,94078.56
2022-10-22T21:16:45.714Z,94071.16
2022-10-22T21:19:13.622Z,94095.22
2022-10-22T21:21:41.643Z,94085.97
2022-10-22T21:24:10.085Z,94080.66
2022-10-22T21:26:42.644Z,94077.38
2022-10-22T21:29:12.601Z,94084.47
2022-10-22T21:31:40.705Z,94098.25
2022-10-22T21:34:08.638Z,94088.69
2022-10-22T21:36:36.886Z,94086.88
2022-10-22T21:39:04.873Z,94088.72
2022-10-22T21:41:33.667Z,94096.97
2022-10-22T21:44:01.595Z,94049.16
2022-10-22T21:46:30.033Z,94078.06
2022-10-22T21:49:02.183Z,94079.59
2022-10-22T21:51:32.819Z,94092.31
2022-10-22T21:54:00.985Z,94085.06
2022-10-22T21:56:32.963Z,94072.59
2022-10-22T21:59:02.550Z,94081.94
2022-10-22T22:01:31.015Z,94082.41
2022-10-22T22:03:59.524Z,94072.47
2022-10-22T22:06:33.177Z,94075.75
2022-10-22T22:09:04.279Z,94078.63
2022-10-22T22:11:32.905Z,94065.06
2022-10-22T22:14:00.926Z,94067.03
2022-10-22T22:16:31.606Z,94085.28
2022-10-22T22:19:01.047Z,94070.13
2022-10-22T22:21:29.830Z,94080.59
2022-10-22T22:23:58.618Z,94074.25
2022-10-22T22:26:30.035Z,94078.09
2022-10-22T22:28:59.847Z,94082.78
2022-10-22T22:31:30.489Z,94079.47
2022-10-22T22:34:00.784Z,94082.47
2022-10-22T22:36:33.793Z,94075.22
2022-10-22T22:39:01.798Z,94076.59
2022-10-22T22:41:29.726Z,94066.81
2022-10-22T22:43:57.698Z,94067.19
2022-10-22T22:46:27.239Z,94068.56
2022-10-22T22:48:55.201Z,94063.94
2022-10-22T22:51:23.404Z,94068.69
2022-10-22T22:53:51.631Z,94059.53
2022-10-22T22:56:23.609Z,94060.94
2022-10-22T22:58:51.999Z,94061.88
2022-10-22T23:01:22.835Z,94052.72
2022-10-22T23:03:56.622Z,94055.38
2022-10-22T23:06:26.127Z,94060.56
2022-10-22T23:08:55.554Z,94071.50
2022-10-22T23:11:25.396Z,94067.56
2022-10-22T23:13:56.095Z,94067.41
2022-10-22T23:16:26.716Z,94058.41
2022-10-22T23:18:56.081Z,94064.34
2022-10-22T23:21:30.007Z,94070.06
2022-10-22T23:24:01.290Z,94080.28
2022-10-22T23:26:34.881Z,94073.38
2022-10-22T23:29:05.846Z,94066.50
2022-10-22T23:31:34.549Z,94069.31
2022-10-22T23:34:02.532Z,94060.28
2022-10-22T23:36:30.665Z,94030.88
2022-10-22T23:38:58.512Z,94074.28
2022-10-22T23:41:26.470Z,94071.59
2022-10-22T23:43:54.511Z,94079.69
2022-10-22T23:46:22.633Z,94083.50
2022-10-22T23:48:50.600Z,94078.81
2022-10-22T23:51:18.580Z,94077.53
2022-10-22T23:53:47.610Z,94084.59
2022-10-22T23:56:18.392Z,94086.56
2022-10-22T23:58:51.809Z,94082.78
